createdAt,value
2022-08-12T00:00:09.901Z,96455.56
2022-08-12T00:02:56.045Z,96452.41
2022-08-12T00:06:01.746Z,96451.13
2022-08-12T00:08:55.392Z,96443.91
2022-08-12T00:11:43.153Z,96451.59
2022-08-12T00:14:29.621Z,96447.66
2022-08-12T00:17:15.757Z,96450.94
2022-08-12T00:20:01.280Z,96453.59
2022-08-12T00:22:59.471Z,96445.22
2022-08-12T00:26:21.101Z,96448.16
2022-08-12T00:29:06.220Z,96439.41
2022-08-12T00:31:51.800Z,96431.13
2022-08-12T00:34:37.492Z,96433.94
2022-08-12T00:37:23.950Z,96434.19
2022-08-12T00:40:11.782Z,96427.50
2022-08-12T00:42:41.243Z,96429.97
2022-08-12T00:45:09.261Z,96435.78
2022-08-12T00:47:37.961Z,96430.25
2022-08-12T00:50:06.401Z,96430.56
2022-08-12T00:52:35.339Z,96432.25
2022-08-12T00:55:05.701Z,96433.44
2022-08-12T00:57:38.251Z,96432.94
2022-08-12T01:00:12.041Z,96423.28
2022-08-12T01:02:42.620Z,96425.34
2022-08-12T01:05:41.090Z,96416.84
2022-08-12T01:08:27.141Z,96419.34
2022-08-12T01:11:14.401Z,96413.50
2022-08-12T01:13:48.252Z,96416.97
2022-08-12T01:16:22.870Z,96415.78
2022-08-12T01:18:52.840Z,96411.75
2022-08-12T01:21:51.102Z,96400.22
2022-08-12T01:24:36.882Z,96415.09
2022-08-12T01:27:07.985Z,96418.63
2022-08-12T01:29:42.043Z,96411.03
2022-08-12T01:32:12.840Z,96414.59
2022-08-12T01:34:45.560Z,96407.31
2022-08-12T01:37:14.461Z,96413.19
2022-08-12T01:40:33.444Z,96415.41
2022-08-12T01:42:32.720Z,96419.25
2022-08-12T01:45:02.254Z,96410.59
2022-08-12T01:47:47.349Z,96404.94
2022-08-12T01:50:40.321Z,96412.69
2022-08-12T01:53:16.065Z,96414.06
2022-08-12T01:55:46.579Z,96395.41
2022-08-12T01:58:29.201Z,96415.44
2022-08-12T02:01:08.999Z,96412.28
2022-08-12T02:04:16.663Z,96406.56
2022-08-12T02:07:52.860Z,96408.66
2022-08-12T02:10:56.819Z,96408.66
2022-08-12T02:13:50.237Z,96413.59
2022-08-12T02:16:30.624Z,96407.75
2022-08-12T02:19:29.837Z,96402.06
2022-08-12T02:22:17.570Z,96395.69
2022-08-12T02:24:46.419Z,96401.56
2022-08-12T02:27:17.569Z,96393.22
2022-08-12T02:29:45.427Z,96393.03
2022-08-12T02:32:13.910Z,96386.91
2022-08-12T02:34:43.690Z,96383.38
2022-08-12T02:37:15.720Z,96384.25
2022-08-12T02:39:48.810Z,96384.34
2022-08-12T02:42:19.330Z,96373.91
2022-08-12T02:44:51.190Z,96382.50
2022-08-12T02:47:58.365Z,96379.41
2022-08-12T02:50:10.990Z,96379.91
2022-08-12T02:52:39.086Z,96377.25
2022-08-12T02:55:28.723Z,96375.38
2022-08-12T02:58:07.052Z,96375.19
2022-08-12T03:00:37.971Z,96378.91
2022-08-12T03:03:11.790Z,96380.22
2022-08-12T03:05:58.341Z,96382.00
2022-08-12T03:08:32.150Z,96374.41
2022-08-12T03:11:11.892Z,96379.53
2022-08-12T03:13:45.844Z,96379.31
2022-08-12T03:16:14.189Z,96372.22
2022-08-12T03:18:46.093Z,96369.69
2022-08-12T03:21:17.505Z,96372.59
2022-08-12T03:24:07.230Z,96376.94
2022-08-12T03:26:37.949Z,96372.28
2022-08-12T03:29:07.183Z,96378.66
2022-08-12T03:31:34.682Z,96376.66
2022-08-12T03:34:05.000Z,96371.66
2022-08-12T03:36:35.538Z,96377.44
2022-08-12T03:39:36.334Z,96376.81
2022-08-12T03:42:38.943Z,96377.09
2022-08-12T03:45:52.103Z,96371.50
2022-08-12T03:48:39.354Z,96372.34
2022-08-12T03:51:25.409Z,96379.75
2022-08-12T03:54:11.755Z,96372.34
2022-08-12T03:56:58.294Z,96360.97
2022-08-12T03:59:44.490Z,96368.13
2022-08-12T04:02:16.012Z,96374.16
2022-08-12T04:04:45.832Z,96375.78
2022-08-12T04:07:13.852Z,96376.09
2022-08-12T04:09:43.559Z,96376.66
2022-08-12T04:12:40.182Z,96379.31
2022-08-12T04:15:14.731Z,96373.84
2022-08-12T04:18:06.392Z,96382.31
2022-08-12T04:20:30.789Z,96381.28
2022-08-12T04:22:58.600Z,96386.53
2022-08-12T04:25:28.491Z,96390.97
2022-08-12T04:27:55.444Z,96389.34
2022-08-12T04:30:32.542Z,96390.34
2022-08-12T04:33:00.805Z,96396.44
2022-08-12T04:35:28.619Z,96402.47
2022-08-12T04:38:00.319Z,96407.63
2022-08-12T04:40:30.930Z,96411.06
2022-08-12T04:42:58.908Z,96408.56
2022-08-12T04:45:26.000Z,96409.44
2022-08-12T04:47:53.209Z,96413.03
2022-08-12T04:50:33.700Z,96420.91
2022-08-12T04:53:03.450Z,96423.66
2022-08-12T04:55:30.413Z,96425.38
2022-08-12T04:57:57.439Z,96415.00
2022-08-12T05:00:24.451Z,96430.56
2022-08-12T05:02:52.591Z,96428.50
2022-08-12T05:05:22.409Z,96428.72
2022-08-12T05:07:54.766Z,96430.78
2022-08-12T05:10:33.670Z,96425.88
2022-08-12T05:13:07.681Z,96419.13
2022-08-12T05:16:03.592Z,96425.72
2022-08-12T05:18:29.042Z,96429.03
2022-08-12T05:20:59.041Z,96425.75
2022-08-12T05:23:27.181Z,96429.75
2022-08-12T05:25:57.423Z,96434.69
2022-08-12T05:28:27.360Z,96430.56
2022-08-12T05:30:54.999Z,96434.13
2022-08-12T05:33:25.792Z,96429.09
2022-08-12T05:35:52.929Z,96430.75
2022-08-12T05:38:38.909Z,96439.25
2022-08-12T05:41:19.300Z,96431.41
2022-08-12T05:43:54.650Z,96430.84
2022-08-12T05:46:23.350Z,96443.16
2022-08-12T05:48:51.647Z,96435.81
2022-08-12T05:51:19.091Z,96441.75
2022-08-12T05:53:46.130Z,96443.41
2022-08-12T05:56:24.229Z,96444.16
2022-08-12T05:58:53.294Z,96441.97
2022-08-12T06:02:10.230Z,96439.31
2022-08-12T06:04:09.849Z,96437.50
2022-08-12T06:06:41.979Z,96442.22
2022-08-12T06:09:11.625Z,96442.69
2022-08-12T06:11:53.647Z,96444.19
2022-08-12T06:14:28.712Z,96441.59
2022-08-12T06:16:57.922Z,96442.25
2022-08-12T06:19:25.911Z,96445.56
2022-08-12T06:22:12.929Z,96443.66
2022-08-12T06:24:39.958Z,96450.34
2022-08-12T06:27:07.819Z,96443.69
2022-08-12T06:29:35.895Z,96442.38
2022-08-12T06:32:27.467Z,96438.06
2022-08-12T06:35:25.790Z,96438.91
2022-08-12T06:37:51.309Z,96446.16
2022-08-12T06:40:42.531Z,96435.66
2022-08-12T06:43:09.677Z,96440.59
2022-08-12T06:45:45.239Z,96437.78
2022-08-12T06:48:13.154Z,96440.03
2022-08-12T06:50:40.477Z,96439.44
2022-08-12T06:53:09.519Z,96444.63
2022-08-12T06:55:36.962Z,96435.69
2022-08-12T06:58:10.521Z,96449.22
2022-08-12T07:00:38.197Z,96442.00
2022-08-12T07:03:22.423Z,96444.84
2022-08-12T07:05:50.839Z,96448.66
2022-08-12T07:08:18.781Z,96449.75
2022-08-12T07:10:53.680Z,96456.53
2022-08-12T07:13:20.841Z,96454.81
2022-08-12T07:15:47.880Z,96452.09
2022-08-12T07:18:20.845Z,96445.69
2022-08-12T07:20:53.053Z,96454.66
2022-08-12T07:23:20.605Z,96452.94
2022-08-12T07:25:48.012Z,96459.25
2022-08-12T07:28:23.862Z,96460.44
2022-08-12T07:30:55.421Z,96447.25
2022-08-12T07:33:29.290Z,96457.34
2022-08-12T07:35:59.801Z,96457.19
2022-08-12T07:38:33.843Z,96454.06
2022-08-12T07:41:14.589Z,96453.44
2022-08-12T07:43:51.809Z,96458.91
2022-08-12T07:46:22.621Z,96456.72
2022-08-12T07:48:52.660Z,96453.72
2022-08-12T07:51:25.620Z,96457.00
2022-08-12T07:54:00.176Z,96462.19
2022-08-12T07:56:28.487Z,96462.34
2022-08-12T07:58:59.494Z,96455.88
2022-08-12T08:01:26.896Z,96461.31
2022-08-12T08:04:18.415Z,96463.03
2022-08-12T08:06:47.116Z,96457.84
2022-08-12T08:09:17.271Z,96467.91
2022-08-12T08:12:19.342Z,96465.88
2022-08-12T08:14:48.370Z,96472.19
2022-08-12T08:17:17.922Z,96468.91
2022-08-12T08:20:02.936Z,96467.38
2022-08-12T08:22:41.095Z,96468.34
2022-08-12T08:25:35.338Z,96462.88
2022-08-12T08:28:00.381Z,96459.00
2022-08-12T08:30:29.621Z,96447.84
2022-08-12T08:32:56.881Z,96454.00
2022-08-12T08:35:26.004Z,96462.00
2022-08-12T08:38:17.646Z,96452.41
2022-08-12T08:42:17.445Z,96451.94
2022-08-12T08:44:06.085Z,96453.38
2022-08-12T08:46:38.054Z,96460.13
2022-08-12T08:49:06.224Z,96462.66
2022-08-12T08:51:34.026Z,96467.03
2022-08-12T08:54:01.151Z,96464.84
2022-08-12T08:56:31.012Z,96468.91
2022-08-12T08:58:58.466Z,96469.53
2022-08-12T09:01:26.469Z,96466.84
2022-08-12T09:05:07.352Z,96463.84
2022-08-12T09:06:59.765Z,96465.19
2022-08-12T09:09:34.228Z,96456.97
2022-08-12T09:12:33.031Z,96464.00
2022-08-12T09:15:16.899Z,96449.31
2022-08-12T09:17:57.291Z,96449.03
2022-08-12T09:20:29.414Z,96458.28
2022-08-12T09:22:58.926Z,96452.41
2022-08-12T09:25:26.459Z,96446.63
2022-08-12T09:28:05.074Z,96452.66
2022-08-12T09:30:41.245Z,96445.34
2022-08-12T09:33:15.012Z,96439.44
2022-08-12T09:35:47.059Z,96442.69
2022-08-12T09:38:32.350Z,96439.88
2022-08-12T09:42:08.032Z,96431.88
2022-08-12T09:44:06.357Z,96443.41
2022-08-12T09:46:53.335Z,96435.25
2022-08-12T09:49:23.971Z,96429.66
2022-08-12T09:51:54.451Z,96431.69
2022-08-12T09:54:33.934Z,96435.03
2022-08-12T09:58:44.954Z,96434.25
2022-08-12T10:00:13.703Z,96419.56
2022-08-12T10:03:31.991Z,96426.50
2022-08-12T10:06:26.730Z,96418.16
2022-08-12T10:08:52.435Z,96418.03
2022-08-12T10:12:10.797Z,96426.03
2022-08-12T10:14:35.192Z,96426.47
2022-08-12T10:17:08.837Z,96429.13
2022-08-12T10:19:38.070Z,96416.94
2022-08-12T10:22:16.559Z,96412.78
2022-08-12T10:24:43.896Z,96412.69
2022-08-12T10:28:04.664Z,96419.09
2022-08-12T10:30:39.540Z,96412.16
2022-08-12T10:33:18.661Z,96413.97
2022-08-12T10:35:46.440Z,96414.34
2022-08-12T10:38:38.882Z,96401.56
2022-08-12T10:41:21.299Z,96393.75
2022-08-12T10:43:55.039Z,96392.94
2022-08-12T10:46:30.492Z,96396.16
2022-08-12T10:49:05.956Z,96391.69
2022-08-12T10:52:04.893Z,96394.13
2022-08-12T10:54:36.520Z,96385.81
2022-08-12T10:57:03.553Z,96393.09
2022-08-12T10:59:39.132Z,96390.66
2022-08-12T11:13:14.911Z,96375.44
2022-08-12T11:16:18.912Z,96374.63
2022-08-12T11:18:31.010Z,96382.22
2022-08-12T11:20:58.990Z,96382.81
2022-08-12T11:23:36.917Z,96379.13
2022-08-12T11:26:08.097Z,96378.38
2022-08-12T11:28:37.130Z,96373.31
2022-08-12T11:31:07.092Z,96366.41
2022-08-12T11:34:05.191Z,96355.63
2022-08-12T11:36:24.199Z,96359.13
2022-08-12T11:38:53.328Z,96359.22
2022-08-12T11:41:30.956Z,96360.56
2022-08-12T11:44:20.209Z,96351.56
2022-08-12T11:46:51.314Z,96361.59
2022-08-12T11:49:32.448Z,96351.75
2022-08-12T11:52:03.476Z,96359.28
2022-08-12T11:54:31.615Z,96348.97
2022-08-12T11:57:02.805Z,96350.22
2022-08-12T12:02:20.814Z,96344.94
2022-08-12T12:04:52.728Z,96347.72
2022-08-12T12:07:33.750Z,96342.50
2022-08-12T12:10:14.601Z,96344.78
2022-08-12T12:12:49.496Z,96338.34
2022-08-12T12:15:24.739Z,96339.56
2022-08-12T12:17:55.709Z,96340.50
2022-08-12T12:20:26.120Z,96339.81
2022-08-12T12:22:57.537Z,96352.03
2022-08-12T12:25:59.590Z,96349.34
2022-08-12T12:28:36.538Z,96348.78
2022-08-12T12:31:00.481Z,96345.56
2022-08-12T12:33:57.534Z,96338.09
2022-08-12T12:36:20.349Z,96340.94
2022-08-12T12:38:51.354Z,96353.59
2022-08-12T12:41:18.454Z,96349.72
2022-08-12T12:43:56.600Z,96354.19
2022-08-12T12:46:31.705Z,96354.72
2022-08-12T12:48:58.646Z,96352.13
2022-08-12T12:51:49.251Z,96355.53
2022-08-12T12:54:13.048Z,96352.78
2022-08-12T12:56:44.636Z,96358.28
2022-08-12T12:59:55.275Z,96352.81
2022-08-12T13:02:07.732Z,96345.88
2022-08-12T13:04:37.738Z,96341.38
2022-08-12T13:07:06.577Z,96342.50
2022-08-12T13:09:36.205Z,96353.06
2022-08-12T13:12:10.390Z,96353.78
2022-08-12T13:14:39.625Z,96348.31
2022-08-12T13:17:07.480Z,96350.88
2022-08-12T13:19:43.463Z,96349.31
2022-08-12T13:22:19.197Z,96354.16
2022-08-12T13:24:52.206Z,96354.00
2022-08-12T13:27:28.235Z,96346.59
2022-08-12T13:30:06.650Z,96353.53
2022-08-12T13:32:34.352Z,96354.00
2022-08-12T13:35:03.785Z,96351.94
2022-08-12T13:37:43.961Z,96352.97
2022-08-12T13:40:18.914Z,96357.03
2022-08-12T13:42:49.026Z,96343.91
2022-08-12T13:45:18.264Z,96347.44
2022-08-12T13:47:57.614Z,96340.38
2022-08-12T13:50:32.945Z,96341.16
2022-08-12T13:53:23.053Z,96343.47
2022-08-12T13:55:59.351Z,96337.72
2022-08-12T13:58:28.254Z,96343.00
2022-08-12T14:00:58.711Z,96334.91
2022-08-12T14:03:28.500Z,96333.09
2022-08-12T14:06:15.474Z,96328.94
2022-08-12T14:08:43.757Z,96328.03
2022-08-12T14:11:12.508Z,96318.00
2022-08-12T14:14:05.232Z,96334.31
2022-08-12T14:16:37.415Z,96325.34
2022-08-12T14:19:22.312Z,96320.00
2022-08-12T14:22:00.709Z,96317.22
2022-08-12T14:24:35.908Z,96323.94
2022-08-12T14:27:09.372Z,96331.25
2022-08-12T14:30:05.883Z,96329.34
2022-08-12T14:32:35.582Z,96323.19
2022-08-12T14:35:08.974Z,96336.94
2022-08-12T14:37:57.323Z,96328.84
2022-08-12T14:40:27.737Z,96318.63
2022-08-12T14:42:56.886Z,96327.00
2022-08-12T14:45:37.199Z,96324.66
2022-08-12T14:48:14.785Z,96317.84
2022-08-12T14:51:03.139Z,96322.28
2022-08-12T14:55:38.574Z,96309.06
2022-08-12T14:59:24.849Z,96326.88
2022-08-12T15:01:54.612Z,96320.50
2022-08-12T15:04:26.237Z,96331.06
2022-08-12T15:06:53.396Z,96327.47
2022-08-12T15:09:29.265Z,96326.50
2022-08-12T15:12:03.389Z,96329.75
2022-08-12T15:14:32.124Z,96331.25
2022-08-12T15:17:02.909Z,96323.41
2022-08-12T15:20:07.573Z,96334.50
2022-08-12T15:22:38.600Z,96333.16
2022-08-12T15:25:07.421Z,96334.34
2022-08-12T15:28:05.438Z,96328.88
2022-08-12T15:30:31.340Z,96330.44
2022-08-12T15:32:59.464Z,96331.44
2022-08-12T15:35:38.231Z,96331.00
2022-08-12T15:38:20.607Z,96337.06
2022-08-12T15:40:52.545Z,96337.69
2022-08-12T15:43:52.056Z,96332.34
2022-08-12T15:46:15.497Z,96333.31
2022-08-12T15:48:47.625Z,96335.69
2022-08-12T15:51:58.448Z,96340.69
2022-08-12T15:54:35.109Z,96344.88
2022-08-12T15:57:07.813Z,96340.75
2022-08-12T16:00:00.527Z,96331.66
2022-08-12T16:02:29.485Z,96338.31
2022-08-12T16:04:57.456Z,96334.22
2022-08-12T16:07:29.962Z,96330.53
2022-08-12T16:10:07.018Z,96334.34
2022-08-12T16:12:55.130Z,96323.81
2022-08-12T16:15:26.360Z,96321.19
2022-08-12T16:18:14.781Z,96319.94
2022-08-12T16:20:46.828Z,96316.13
2022-08-12T16:23:36.043Z,96312.53
2022-08-12T16:26:15.306Z,96309.53
2022-08-12T16:28:48.231Z,96309.44
2022-08-12T16:31:23.452Z,96319.59
2022-08-12T16:33:59.001Z,96323.41
2022-08-12T16:36:29.552Z,96326.88
2022-08-12T16:38:56.903Z,96333.41
2022-08-12T16:41:24.356Z,96335.38
2022-08-12T16:43:55.273Z,96337.50
2022-08-12T16:46:33.349Z,96349.09
2022-08-12T16:49:09.338Z,96360.44
2022-08-12T16:51:46.314Z,96362.25
2022-08-12T16:54:17.274Z,96368.94
2022-08-12T16:56:54.495Z,96363.91
2022-08-12T16:59:31.100Z,96364.69
2022-08-12T17:02:18.089Z,96368.22
2022-08-12T17:05:03.157Z,96357.72
2022-08-12T17:07:36.856Z,96354.44
2022-08-12T17:10:09.804Z,96349.53
2022-08-12T17:12:39.391Z,96342.69
2022-08-12T17:15:51.215Z,96335.13
2022-08-12T17:18:42.624Z,96333.75
2022-08-12T17:20:47.439Z,96328.72
2022-08-12T17:23:19.682Z,96322.44
2022-08-12T17:25:50.644Z,96321.66
2022-08-12T17:28:19.314Z,96330.59
2022-08-12T17:30:57.490Z,96318.94
2022-08-12T17:33:33.690Z,96316.13
2022-08-12T17:36:03.342Z,96322.25
2022-08-12T17:38:30.635Z,96323.81
2022-08-12T17:40:57.948Z,96328.50
2022-08-12T17:43:51.805Z,96318.31
2022-08-12T17:46:24.200Z,96317.22
2022-08-12T17:48:59.952Z,96316.59
2022-08-12T17:51:31.599Z,96319.09
2022-08-12T17:54:10.109Z,96326.81
2022-08-12T17:56:39.352Z,96327.28
2022-08-12T17:59:12.404Z,96330.41
2022-08-12T18:01:45.349Z,96324.13
2022-08-12T18:04:21.852Z,96329.16
2022-08-12T18:06:55.700Z,96330.25
2022-08-12T18:09:32.138Z,96333.84
2022-08-12T18:12:24.634Z,96326.59
2022-08-12T18:14:58.776Z,96328.47
2022-08-12T18:17:27.254Z,96326.91
2022-08-12T18:20:05.626Z,96326.91
2022-08-12T18:22:35.351Z,96334.09
2022-08-12T18:25:06.817Z,96324.09
2022-08-12T18:28:15.967Z,96330.50
2022-08-12T18:30:52.727Z,96332.66
2022-08-12T18:33:25.812Z,96333.72
2022-08-12T18:35:56.696Z,96329.94
2022-08-12T18:38:26.256Z,96333.97
2022-08-12T18:41:21.917Z,96334.56
2022-08-12T18:44:02.818Z,96344.72
2022-08-12T18:46:54.149Z,96344.25
2022-08-12T18:49:39.726Z,96344.88
2022-08-12T18:52:11.486Z,96349.53
2022-08-12T18:54:52.950Z,96348.59
2022-08-12T18:58:06.404Z,96345.63
2022-08-12T19:00:21.331Z,96349.38
2022-08-12T19:02:51.218Z,96342.41
2022-08-12T19:05:18.320Z,96353.38
2022-08-12T19:08:01.748Z,96346.00
2022-08-12T19:10:31.332Z,96334.97
2022-08-12T19:13:23.004Z,96339.16
2022-08-12T19:15:58.017Z,96351.81
2022-08-12T19:18:31.842Z,96354.13
2022-08-12T19:21:11.960Z,96350.28
2022-08-12T19:23:44.139Z,96351.19
2022-08-12T19:26:12.799Z,96351.91
2022-08-12T19:28:41.364Z,96351.03
2022-08-12T19:31:55.438Z,96350.03
2022-08-12T19:37:38.673Z,96341.97
2022-08-12T19:40:31.361Z,96344.16
2022-08-12T19:43:22.019Z,96349.59
2022-08-12T19:45:56.788Z,96342.81
2022-08-12T19:48:30.792Z,96337.78
2022-08-12T19:51:09.257Z,96344.38
2022-08-12T19:53:58.096Z,96335.63
2022-08-12T19:56:28.259Z,96334.34
2022-08-12T19:59:18.749Z,96335.44
2022-08-12T20:02:03.354Z,96326.16
2022-08-12T20:04:37.771Z,96321.03
2022-08-12T20:07:06.750Z,96319.78
2022-08-12T20:09:39.718Z,96321.34
2022-08-12T20:12:09.350Z,96316.50
2022-08-12T20:14:43.716Z,96316.63
2022-08-12T20:17:11.388Z,96317.41
2022-08-12T20:20:05.611Z,96315.34
2022-08-12T20:22:43.533Z,96318.91
2022-08-12T20:25:11.969Z,96319.03
2022-08-12T20:28:02.839Z,96312.91
2022-08-12T20:30:52.834Z,96305.34
2022-08-12T20:33:23.073Z,96313.63
2022-08-12T20:36:14.344Z,96311.75
2022-08-12T20:38:46.910Z,96310.75
2022-08-12T20:41:16.226Z,96310.28
2022-08-12T20:43:44.869Z,96312.94
2022-08-12T20:46:13.749Z,96311.44
2022-08-12T20:48:43.679Z,96309.69
2022-08-12T20:51:19.020Z,96305.66
2022-08-12T20:53:58.408Z,96309.41
2022-08-12T20:56:30.692Z,96307.53
2022-08-12T20:59:01.317Z,96302.63
2022-08-12T21:01:47.085Z,96304.56
2022-08-12T21:04:36.109Z,96294.66
2022-08-12T21:07:09.008Z,96300.66
2022-08-12T21:09:47.341Z,96295.44
2022-08-12T21:12:27.700Z,96295.91
2022-08-12T21:15:17.628Z,96293.34
2022-08-12T21:18:09.837Z,96290.88
2022-08-12T21:20:37.817Z,96286.13
2022-08-12T21:23:06.658Z,96294.44
2022-08-12T21:25:44.275Z,96284.19
2022-08-12T21:28:15.738Z,96285.94
2022-08-12T21:31:11.386Z,96287.69
2022-08-12T21:33:58.378Z,96281.41
2022-08-12T21:36:32.071Z,96285.19
2022-08-12T21:39:18.106Z,96289.03
2022-08-12T21:41:50.108Z,96281.72
2022-08-12T21:44:24.024Z,96285.25
2022-08-12T21:47:21.230Z,96283.16
2022-08-12T21:50:03.784Z,96291.19
2022-08-12T21:52:40.421Z,96293.06
2022-08-12T21:55:18.164Z,96289.34
2022-08-12T21:57:54.850Z,96292.38
2022-08-12T22:00:36.944Z,96281.06
2022-08-12T22:04:03.947Z,96290.09
2022-08-12T22:06:30.917Z,96285.75
2022-08-12T22:09:15.859Z,96290.88
2022-08-12T22:11:49.256Z,96279.47
2022-08-12T22:14:24.331Z,96277.38
2022-08-12T22:16:53.577Z,96278.88
2022-08-12T22:19:22.665Z,96273.78
2022-08-12T22:21:54.883Z,96275.56
2022-08-12T22:24:27.756Z,96271.63
2022-08-12T22:26:59.539Z,96274.78
2022-08-12T22:30:01.075Z,96268.91
2022-08-12T22:32:30.075Z,96273.13
2022-08-12T22:35:22.238Z,96263.88
2022-08-12T22:37:53.456Z,96254.03
2022-08-12T22:40:22.818Z,96252.56
2022-08-12T22:43:15.253Z,96255.50
2022-08-12T22:46:01.591Z,96258.38
2022-08-12T22:48:28.718Z,96251.88
2022-08-12T22:50:59.370Z,96255.31
2022-08-12T22:53:36.222Z,96247.44
2022-08-12T22:56:08.192Z,96250.09
2022-08-12T22:58:40.423Z,96250.88
2022-08-12T23:01:11.306Z,96254.03
2022-08-12T23:03:48.602Z,96247.72
2022-08-12T23:06:24.089Z,96251.16
2022-08-12T23:08:52.771Z,96250.88
2022-08-12T23:11:23.632Z,96245.34
2022-08-12T23:13:55.271Z,96244.56
2022-08-12T23:16:31.917Z,96237.72
2022-08-12T23:19:22.904Z,96243.78
2022-08-12T23:22:04.363Z,96232.59
2022-08-12T23:24:55.984Z,96236.03
2022-08-12T23:27:52.192Z,96238.91
2022-08-12T23:30:32.472Z,96235.16
2022-08-12T23:33:19.949Z,96237.13
2022-08-12T23:35:59.422Z,96222.78
2022-08-12T23:38:32.428Z,96223.94
2022-08-12T23:41:05.340Z,96226.00
2022-08-12T23:43:38.807Z,96231.03
2022-08-12T23:46:19.163Z,96230.44
2022-08-12T23:48:47.925Z,96220.41
2022-08-12T23:51:23.509Z,96225.16
2022-08-12T23:53:59.803Z,96217.97
2022-08-12T23:56:29.410Z,96220.03
2022-08-12T23:58:58.582Z,96220.25
